Pitangueiras, Brazil
Current Conditions -  °F | °C
As of 3:00 AM on Thursday 18 Dec 2014 (Local Time) from SBRP Reporting Station
Clear Clear  
Wind Chill: 75°   Ceiling: Unl
Heat Index: 75°   Visibility: 6mi
Dew Point: 68°   Wind: 3mph
Humidity: 78%   Direction: 110°ESE
Pressure: 29.83"   Gusts: NA
Location:  21.01°S, 48.22°W
Report Text: SBRP 180500Z 11003KT CAVOK 24/20 Q1010
Loading
Personal Weather Stations






























Interactive Weather Map New forecast layout! Learn more

10-Day Weather Forecast

Advertisements
Track Severe Weather on mobile